Bristol, Florida
Current Conditions -  °F | °C
As of 8:55 PM on Sunday 25 Jan 2015 (Local Time) from K2J9 Reporting Station
Broken Clouds Broken Clouds  
Wind Chill: 52°   Ceiling: 3500
Heat Index: 52°   Visibility: 10mi
Dew Point: 46°   Wind: 5mph
Humidity: 82%   Direction: 200°SSW
Pressure: 29.89"   Gusts: NA
Location:  30.43°N, 84.98°W
Report Text: K2J9 260155Z AUTO 20004KT 10SM SCT030 BKN035 11/08 A2989 RMK AO1
Loading
Personal Weather Stations






























Interactive Weather Map New forecast layout! Learn more

10-Day Weather Forecast

Advertisements
Track Severe Weather on mobile